Northern Power — A8TL6 — position and weather

sailwx.info

Track history (hours):
 
Tides and Currents Weather Stations Pressure Air Temp Water Temp Dewpoint Dewpoint Depression Visibility Wind Speed Wind Dir Waves Ship Positions

Northern Power

Last reported at 2016-Dec-02 08:33 UTC. Time now 2016-Dec-02 20:15 UTC.
Position N 31°31' W 010°55'.

Length 264 m; draft 9.5 m.

Type: Cargo ship. MMSI: 636091835.

Date/timePositionNaut miles runAvg speedWind from/ knotsBaromVisibWave heightAir tempDewpointWater temp
2016-Dec-02 08:33N 31°31' W 010°55'1616.5
2016-Dec-02 07:33N 31°17' W 011°05'1716.6
2016-Dec-02 06:33N 31°04' W 011°16'1616.1
2016-Dec-02 05:33N 30°50' W 011°26'1616.2
2016-Dec-02 04:33N 30°36' W 011°36'1616.3
2016-Dec-02 03:33N 30°23' W 011°47'1616.4
2016-Dec-02 02:33N 30°09' W 011°57'1616.2
2016-Dec-02 01:33N 29°55' W 012°07'1616.0
2016-Dec-02 00:33N 29°42' W 012°17'1615.7
2016-Dec-01 23:33N 29°29' W 012°27'1615.6
2016-Dec-01 22:34N 29°15' W 012°36'4815.8
2016-Dec-01 19:33N 28°35' W 013°06'2216.4
2016-Dec-01 18:10N 28°16' W 013°19'1116.0
2016-Dec-01 17:29N 28°07' W 013°26'1516.0
2016-Dec-01 16:33N 27°55' W 013°36'1615.9
2016-Dec-01 15:33N 27°42' W 013°47'1615.7
2016-Dec-01 14:33N 27°31' W 013°59'1615.9
2016-Dec-01 13:33N 27°18' W 014°10'1616.1
2016-Dec-01 12:33N 27°06' W 014°22'1916.3
2016-Dec-01 11:22N 26°52' W 014°36'1316.1
2016-Dec-01 10:33N 26°42' W 014°46'  
Track history (hours):
 
Tides and Currents Weather Stations Pressure Air Temp Water Temp Dewpoint Dewpoint Depression Visibility Wind Speed Wind Dir Waves Ship Positions

Northern Power

Last reported at 2016-Dec-02 08:33 UTC. Time now 2016-Dec-02 20:15 UTC.
Position N 31°31' W 010°55'.

Length 264 m; draft 9.5 m.

Type: Cargo ship. MMSI: 636091835.

Date/timePositionNaut miles runAvg speedWind from/ knotsBaromVisibWave heightAir tempDewpointWater temp
2016-Dec-02 08:33N 31°31' W 010°55'1616.5
2016-Dec-02 07:33N 31°17' W 011°05'1716.6
2016-Dec-02 06:33N 31°04' W 011°16'1616.1
2016-Dec-02 05:33N 30°50' W 011°26'1616.2
2016-Dec-02 04:33N 30°36' W 011°36'1616.3
2016-Dec-02 03:33N 30°23' W 011°47'1616.4
2016-Dec-02 02:33N 30°09' W 011°57'1616.2
2016-Dec-02 01:33N 29°55' W 012°07'1616.0
2016-Dec-02 00:33N 29°42' W 012°17'1615.7
2016-Dec-01 23:33N 29°29' W 012°27'1615.6
2016-Dec-01 22:34N 29°15' W 012°36'4815.8
2016-Dec-01 19:33N 28°35' W 013°06'2216.4
2016-Dec-01 18:10N 28°16' W 013°19'1116.0
2016-Dec-01 17:29N 28°07' W 013°26'1516.0
2016-Dec-01 16:33N 27°55' W 013°36'1615.9
2016-Dec-01 15:33N 27°42' W 013°47'1615.7
2016-Dec-01 14:33N 27°31' W 013°59'1615.9
2016-Dec-01 13:33N 27°18' W 014°10'1616.1
2016-Dec-01 12:33N 27°06' W 014°22'1916.3
2016-Dec-01 11:22N 26°52' W 014°36'1316.1
2016-Dec-01 10:33N 26°42' W 014°46'  

Dump ship's entire track history